createdAt,value
2017-03-17T00:00:10.816Z,1011.34
2017-03-17T00:00:51.284Z,1011.3
2017-03-17T00:01:31.806Z,1011.27
2017-03-17T00:02:12.281Z,1011.27
2017-03-17T00:02:52.819Z,1011.29
2017-03-17T00:03:33.282Z,1011.25
2017-03-17T00:04:13.818Z,1011.25
2017-03-17T00:04:54.330Z,1011.24
2017-03-17T00:05:34.809Z,1011.18
2017-03-17T00:06:15.305Z,1011.18
2017-03-17T00:06:55.814Z,1011.25
2017-03-17T00:07:36.302Z,1011.27
2017-03-17T00:08:16.855Z,1011.28
2017-03-17T00:08:57.339Z,1011.21
2017-03-17T00:09:37.851Z,1011.35
2017-03-17T00:10:18.334Z,1011.15
2017-03-17T00:10:58.827Z,1011.13
2017-03-17T00:11:39.337Z,1011.11
2017-03-17T00:12:19.864Z,1011.19
2017-03-17T00:13:00.347Z,1011.06
2017-03-17T00:13:40.867Z,1011.21
2017-03-17T00:14:21.358Z,1011.05
2017-03-17T00:15:01.872Z,1011.12
2017-03-17T00:15:42.391Z,1011.08
2017-03-17T00:16:22.893Z,1011.06
2017-03-17T00:17:03.400Z,1011.1
2017-03-17T00:17:43.884Z,1011.11
2017-03-17T00:18:24.410Z,1011.15
2017-03-17T00:19:04.904Z,1011.18
2017-03-17T00:19:45.357Z,1011.15
2017-03-17T00:20:25.906Z,1011.11
2017-03-17T00:21:06.390Z,1011.05
2017-03-17T00:21:46.882Z,1010.98
2017-03-17T00:22:27.332Z,1010.95
2017-03-17T00:23:07.806Z,1011.06
2017-03-17T00:23:48.355Z,1010.98
2017-03-17T00:24:28.907Z,1010.99
2017-03-17T00:25:09.389Z,1010.93
2017-03-17T00:25:49.878Z,1010.93
2017-03-17T00:26:30.387Z,1011.1
2017-03-17T00:27:10.872Z,1011
2017-03-17T00:27:51.370Z,1010.93
2017-03-17T00:28:31.862Z,1010.9
2017-03-17T00:29:12.349Z,1010.95
2017-03-17T00:29:52.840Z,1010.86
2017-03-17T00:30:33.314Z,1010.92
2017-03-17T00:31:13.857Z,1010.92
2017-03-17T00:31:54.325Z,1010.82
2017-03-17T00:32:34.806Z,1010.84
2017-03-17T00:33:15.298Z,1010.84
2017-03-17T00:33:55.788Z,1010.86
2017-03-17T00:34:36.289Z,1010.79
2017-03-17T00:35:16.769Z,1010.74
2017-03-17T00:35:57.250Z,1010.77
2017-03-17T00:36:37.771Z,1010.78
2017-03-17T00:37:18.295Z,1010.79
2017-03-17T00:37:58.788Z,1010.79
2017-03-17T00:38:39.359Z,1010.7
2017-03-17T00:39:19.817Z,1010.77
2017-03-17T00:40:00.299Z,1010.75
2017-03-17T00:40:40.833Z,1010.78
2017-03-17T00:41:21.302Z,1010.73
2017-03-17T00:42:01.777Z,1010.75
2017-03-17T00:42:42.285Z,1010.65
2017-03-17T00:43:22.825Z,1010.72
2017-03-17T00:44:03.311Z,1010.71
2017-03-17T00:44:43.770Z,1010.72
2017-03-17T00:45:24.253Z,1010.74
2017-03-17T00:46:04.787Z,1010.8
2017-03-17T00:46:45.251Z,1010.75
2017-03-17T00:47:25.816Z,1010.69
2017-03-17T00:48:06.274Z,1010.65
2017-03-17T00:48:46.788Z,1010.66
2017-03-17T00:49:27.306Z,1010.62
2017-03-17T00:50:07.777Z,1010.58
2017-03-17T00:50:48.266Z,1010.71
2017-03-17T00:51:28.734Z,1010.68
2017-03-17T00:52:09.220Z,1010.65
2017-03-17T00:52:49.692Z,1010.62
2017-03-17T00:53:30.186Z,1010.51
2017-03-17T00:54:10.668Z,1010.54
2017-03-17T00:54:51.143Z,1010.55
2017-03-17T00:55:31.639Z,1010.7
2017-03-17T00:56:12.176Z,1010.54
2017-03-17T00:56:52.634Z,1010.49
2017-03-17T00:57:33.162Z,1010.53
2017-03-17T00:58:13.646Z,1010.58
2017-03-17T00:58:54.136Z,1010.53
2017-03-17T00:59:34.606Z,1010.53
2017-03-17T01:00:15.123Z,1010.54
2017-03-17T01:00:55.609Z,1010.48
2017-03-17T01:01:36.061Z,1010.51
2017-03-17T01:02:16.554Z,1010.48
2017-03-17T01:02:57.045Z,1010.55
2017-03-17T01:03:37.583Z,1010.52
2017-03-17T01:04:18.087Z,1010.45
2017-03-17T01:04:58.551Z,1010.45
2017-03-17T01:05:39.060Z,1010.68
2017-03-17T01:06:19.562Z,1010.55
2017-03-17T01:07:00.075Z,1010.55
2017-03-17T01:07:40.589Z,1010.55
2017-03-17T01:08:21.105Z,1010.51
2017-03-17T01:09:01.580Z,1010.53
2017-03-17T01:09:42.098Z,1010.54
2017-03-17T01:10:22.554Z,1010.52
2017-03-17T01:11:03.053Z,1010.56
2017-03-17T01:11:43.546Z,1010.43
2017-03-17T01:12:24.045Z,1010.45
2017-03-17T01:13:04.528Z,1010.47
2017-03-17T01:13:45.013Z,1010.45
2017-03-17T01:14:25.806Z,1010.56
2017-03-17T01:15:06.269Z,1010.43
2017-03-17T01:15:46.761Z,1010.46
2017-03-17T01:16:27.287Z,1010.47
2017-03-17T01:17:07.774Z,1010.34
2017-03-17T01:17:48.272Z,1010.44
2017-03-17T01:18:28.739Z,1010.37
2017-03-17T01:19:09.265Z,1010.31
2017-03-17T01:19:49.721Z,1010.42
2017-03-17T01:20:30.239Z,1010.35
2017-03-17T01:21:10.719Z,1010.36
2017-03-17T01:21:51.270Z,1010.31
2017-03-17T01:22:31.778Z,1010.29
2017-03-17T01:23:12.243Z,1010.27
2017-03-17T01:23:52.744Z,1010.33
2017-03-17T01:24:33.282Z,1010.21
2017-03-17T01:25:13.764Z,1010.34
2017-03-17T01:25:54.236Z,1010.19
2017-03-17T01:26:34.749Z,1010.18
2017-03-17T01:27:15.254Z,1010.22
2017-03-17T01:27:55.740Z,1010.19
2017-03-17T01:28:36.232Z,1010.18
2017-03-17T01:29:16.730Z,1010.15
2017-03-17T01:29:57.237Z,1010.23
2017-03-17T01:30:37.708Z,1010.15
2017-03-17T01:31:18.183Z,1010.17
2017-03-17T01:31:58.663Z,1010.12
2017-03-17T01:32:39.156Z,1010.15
2017-03-17T01:33:19.670Z,1010.09
2017-03-17T01:34:00.176Z,1010.2
2017-03-17T01:34:40.626Z,1010.15
2017-03-17T01:35:21.126Z,1010.15
2017-03-17T01:36:01.570Z,1010.19
2017-03-17T01:36:42.135Z,1010.15
2017-03-17T01:37:22.606Z,1010.13
2017-03-17T01:38:03.102Z,1010.1
2017-03-17T01:38:43.584Z,1010.07
2017-03-17T01:39:24.081Z,1010.04
2017-03-17T01:40:04.580Z,1010.01
2017-03-17T01:40:45.077Z,1010.05
2017-03-17T01:41:28.459Z,1010.01
2017-03-17T01:42:08.944Z,1010.01
2017-03-17T01:42:49.456Z,1010.11
2017-03-17T01:43:29.947Z,1010.03
2017-03-17T01:44:10.434Z,1010.12
2017-03-17T01:44:50.895Z,1010.02
2017-03-17T01:45:31.418Z,1010.01
2017-03-17T01:46:11.916Z,1009.97
2017-03-17T01:46:52.367Z,1010.04
2017-03-17T01:47:32.865Z,1009.9
2017-03-17T01:48:13.315Z,1009.91
2017-03-17T01:48:53.867Z,1009.89
2017-03-17T01:49:34.328Z,1009.91
2017-03-17T01:50:14.827Z,1009.92
2017-03-17T01:50:55.287Z,1009.95
2017-03-17T01:51:35.787Z,1009.87
2017-03-17T01:52:16.271Z,1009.91
2017-03-17T01:52:56.711Z,1009.95
2017-03-17T01:53:37.184Z,1009.99
2017-03-17T01:54:17.702Z,1009.86
2017-03-17T01:54:58.161Z,1009.82
2017-03-17T01:55:38.656Z,1009.93
2017-03-17T01:56:19.146Z,1009.9
2017-03-17T01:56:59.643Z,1009.92
2017-03-17T01:57:40.112Z,1009.89
2017-03-17T01:58:20.596Z,1009.93
2017-03-17T01:59:01.112Z,1009.92
2017-03-17T01:59:41.602Z,1009.88
2017-03-17T02:00:22.107Z,1009.95
2017-03-17T02:01:02.626Z,1009.92
2017-03-17T02:01:43.094Z,1009.93
2017-03-17T02:02:23.613Z,1009.88
2017-03-17T02:03:04.132Z,1009.89
2017-03-17T02:03:44.673Z,1009.95
2017-03-17T02:04:25.120Z,1009.92
2017-03-17T02:05:05.619Z,1009.96
2017-03-17T02:05:46.110Z,1009.84
2017-03-17T02:06:26.645Z,1009.8
2017-03-17T02:07:07.108Z,1009.84
2017-03-17T02:07:47.562Z,1009.88
2017-03-17T02:08:28.049Z,1009.88
2017-03-17T02:09:08.574Z,1009.84
2017-03-17T02:09:49.038Z,1009.81
2017-03-17T02:10:29.580Z,1009.87
2017-03-17T02:11:10.033Z,1009.77
2017-03-17T02:11:50.511Z,1009.77
2017-03-17T02:12:31.033Z,1009.76
2017-03-17T02:13:11.501Z,1009.71
2017-03-17T02:13:51.998Z,1009.75
2017-03-17T02:14:32.471Z,1009.62
2017-03-17T02:15:12.992Z,1009.57
2017-03-17T02:15:53.476Z,1009.58
2017-03-17T02:16:33.940Z,1009.56
2017-03-17T02:17:14.432Z,1009.58
2017-03-17T02:17:54.924Z,1009.62
2017-03-17T02:18:35.444Z,1009.57
2017-03-17T02:19:15.945Z,1009.54
2017-03-17T02:19:56.412Z,1009.53
2017-03-17T02:20:36.888Z,1009.58
2017-03-17T02:21:17.439Z,1009.57
2017-03-17T02:21:57.898Z,1009.59
2017-03-17T02:22:38.385Z,1009.64
2017-03-17T02:23:18.852Z,1009.75
2017-03-17T02:23:59.443Z,1009.65
2017-03-17T02:24:39.902Z,1009.74
2017-03-17T02:25:20.420Z,1009.71
2017-03-17T02:26:00.905Z,1009.69
2017-03-17T02:26:41.413Z,1009.73
2017-03-17T02:27:21.905Z,1009.66
2017-03-17T02:28:02.376Z,1009.72
2017-03-17T02:28:42.872Z,1009.66
2017-03-17T02:29:23.326Z,1009.69
2017-03-17T02:30:03.832Z,1009.63
2017-03-17T02:30:44.333Z,1009.63
2017-03-17T02:31:24.825Z,1009.71
2017-03-17T02:32:05.337Z,1009.61
2017-03-17T02:32:45.837Z,1009.6
2017-03-17T02:33:26.308Z,1009.6
2017-03-17T02:34:06.823Z,1009.59
2017-03-17T02:34:47.247Z,1009.58
2017-03-17T02:35:27.726Z,1009.65
2017-03-17T02:36:08.213Z,1009.61
2017-03-17T02:36:48.717Z,1009.63
2017-03-17T02:37:29.230Z,1009.55
2017-03-17T02:38:09.707Z,1009.58
2017-03-17T02:38:50.222Z,1009.57
2017-03-17T02:39:30.671Z,1009.59
2017-03-17T02:40:11.195Z,1009.58
2017-03-17T02:40:51.669Z,1009.58
2017-03-17T02:41:32.172Z,1009.59
2017-03-17T02:42:12.667Z,1009.51
2017-03-17T02:42:53.242Z,1009.54
2017-03-17T02:43:33.749Z,1009.59
2017-03-17T02:44:14.222Z,1009.5
2017-03-17T02:44:54.695Z,1009.56
2017-03-17T02:45:35.234Z,1009.48
2017-03-17T02:46:16.243Z,1009.51
2017-03-17T02:46:56.789Z,1009.5
2017-03-17T02:47:37.311Z,1009.52
2017-03-17T02:48:17.738Z,1009.5
2017-03-17T02:48:58.236Z,1009.48
2017-03-17T02:49:38.757Z,1009.45
2017-03-17T02:50:19.205Z,1009.45
2017-03-17T02:50:59.695Z,1009.4
2017-03-17T02:51:40.210Z,1009.39
2017-03-17T02:52:20.668Z,1009.37
2017-03-17T02:53:01.178Z,1009.43
2017-03-17T02:53:41.702Z,1009.43
2017-03-17T02:54:22.147Z,1009.47
2017-03-17T02:55:02.675Z,1009.46
2017-03-17T02:55:43.132Z,1009.38
2017-03-17T02:56:23.677Z,1009.45
2017-03-17T02:57:04.178Z,1009.41
2017-03-17T02:57:44.664Z,1009.53
2017-03-17T02:58:25.132Z,1009.52
2017-03-17T02:59:05.636Z,1009.54
2017-03-17T02:59:46.121Z,1009.5
2017-03-17T03:00:26.625Z,1009.45
2017-03-17T03:01:07.105Z,1009.46
2017-03-17T03:01:47.615Z,1009.46
2017-03-17T03:02:28.083Z,1009.38
2017-03-17T03:03:08.547Z,1009.39
2017-03-17T03:03:49.014Z,1009.41
2017-03-17T03:04:29.498Z,1009.35
2017-03-17T03:05:09.982Z,1009.28
2017-03-17T03:05:50.483Z,1009.3
2017-03-17T03:06:31.097Z,1009.3
2017-03-17T03:07:11.586Z,1009.26
2017-03-17T03:07:52.045Z,1009.22
2017-03-17T03:08:32.547Z,1009.27
2017-03-17T03:09:13.008Z,1009.36
2017-03-17T03:09:53.523Z,1009.39
2017-03-17T03:10:34.013Z,1009.42
2017-03-17T03:11:14.497Z,1009.4
2017-03-17T03:11:55.037Z,1009.35
2017-03-17T03:12:35.543Z,1009.4
2017-03-17T03:13:16.021Z,1009.3
2017-03-17T03:13:56.496Z,1009.35
2017-03-17T03:14:37.007Z,1009.34
2017-03-17T03:15:17.494Z,1009.41
2017-03-17T03:15:57.972Z,1009.4
2017-03-17T03:16:38.495Z,1009.41
2017-03-17T03:17:18.964Z,1009.4
2017-03-17T03:17:59.435Z,1009.36
2017-03-17T03:18:39.940Z,1009.34
2017-03-17T03:19:20.411Z,1009.49
2017-03-17T03:20:00.938Z,1009.46
2017-03-17T03:20:41.416Z,1009.41
2017-03-17T03:21:21.894Z,1009.48
2017-03-17T03:22:02.416Z,1009.41
2017-03-17T03:22:42.862Z,1009.48
2017-03-17T03:23:23.377Z,1009.42
2017-03-17T03:24:03.886Z,1009.43
2017-03-17T03:24:44.342Z,1009.45
2017-03-17T03:25:24.833Z,1009.52
2017-03-17T03:26:05.369Z,1009.44
2017-03-17T03:26:45.826Z,1009.37
2017-03-17T03:27:26.297Z,1009.47
2017-03-17T03:28:06.808Z,1009.48
2017-03-17T03:28:47.316Z,1009.37
2017-03-17T03:29:27.811Z,1009.34
2017-03-17T03:30:08.304Z,1009.33
2017-03-17T03:30:48.858Z,1009.35
2017-03-17T03:31:29.332Z,1009.42
2017-03-17T03:32:09.771Z,1009.41
2017-03-17T03:32:50.292Z,1009.37
2017-03-17T03:33:30.745Z,1009.3
2017-03-17T03:34:11.280Z,1009.28
2017-03-17T03:34:51.739Z,1009.25
2017-03-17T03:35:32.226Z,1009.31
2017-03-17T03:36:12.722Z,1009.37
2017-03-17T03:36:53.191Z,1009.35
2017-03-17T03:37:33.679Z,1009.35
2017-03-17T03:38:14.155Z,1009.34
2017-03-17T03:38:54.606Z,1009.39
2017-03-17T03:39:35.076Z,1009.29
2017-03-17T03:40:15.596Z,1009.4
2017-03-17T03:40:56.065Z,1009.33
2017-03-17T03:41:36.553Z,1009.3
2017-03-17T03:42:17.023Z,1009.36
2017-03-17T03:42:57.523Z,1009.24
2017-03-17T03:43:38.005Z,1009.27
2017-03-17T03:44:18.507Z,1009.38
2017-03-17T03:44:58.965Z,1009.37
2017-03-17T03:45:39.452Z,1009.26
2017-03-17T03:46:19.983Z,1009.38
2017-03-17T03:47:00.460Z,1009.26
2017-03-17T03:47:40.919Z,1009.16
2017-03-17T03:48:21.426Z,1009.16
2017-03-17T03:49:01.895Z,1009.14
2017-03-17T03:49:42.381Z,1009.06
2017-03-17T03:50:22.872Z,1009.16
2017-03-17T03:51:03.396Z,1009.11
2017-03-17T03:51:43.899Z,1009.22
2017-03-17T03:52:24.407Z,1009.25
2017-03-17T03:53:04.870Z,1009.26
2017-03-17T03:53:45.363Z,1009.19
2017-03-17T03:54:25.871Z,1009.26
2017-03-17T03:55:06.344Z,1009.34
2017-03-17T03:55:46.841Z,1009.15
2017-03-17T03:56:27.326Z,1009.23
2017-03-17T03:57:07.792Z,1009.19
2017-03-17T03:57:48.270Z,1009.23
2017-03-17T03:58:28.760Z,1009.29
2017-03-17T03:59:09.252Z,1009.26
2017-03-17T03:59:49.741Z,1009.26
2017-03-17T04:00:30.230Z,1009.21
2017-03-17T04:01:10.738Z,1009.21
2017-03-17T04:01:51.229Z,1009.24
2017-03-17T04:02:31.684Z,1009.23
2017-03-17T04:03:12.231Z,1009.22
2017-03-17T04:03:52.667Z,1009.2
2017-03-17T04:04:33.163Z,1009.21
2017-03-17T04:05:13.683Z,1009.13
2017-03-17T04:05:54.182Z,1009.14
2017-03-17T04:06:34.681Z,1009.19
2017-03-17T04:07:15.178Z,1009.12
2017-03-17T04:07:55.664Z,1009.17
2017-03-17T04:08:36.227Z,1009.09
2017-03-17T04:09:16.690Z,1009.06
2017-03-17T04:09:57.185Z,1009.03
2017-03-17T04:10:37.672Z,1009.11
2017-03-17T04:11:18.176Z,1009.08
2017-03-17T04:11:58.629Z,1009.16
2017-03-17T04:12:39.114Z,1009.2
2017-03-17T04:13:19.613Z,1009.28
2017-03-17T04:14:02.973Z,1009.23
2017-03-17T04:14:43.463Z,1009.3
2017-03-17T04:15:23.947Z,1009.28
2017-03-17T04:16:04.462Z,1009.24
2017-03-17T04:16:44.963Z,1009.27
2017-03-17T04:17:25.449Z,1009.14
2017-03-17T04:18:05.922Z,1009.29
2017-03-17T04:18:46.435Z,1009.1
2017-03-17T04:19:26.907Z,1009.13
2017-03-17T04:20:07.413Z,1009.21
2017-03-17T04:20:47.894Z,1009.23
2017-03-17T04:21:28.390Z,1009.17
2017-03-17T04:22:08.862Z,1009.15
2017-03-17T04:22:49.335Z,1009.18
2017-03-17T04:23:29.855Z,1009.2
2017-03-17T04:24:10.318Z,1009.23
2017-03-17T04:24:50.829Z,1009.25
2017-03-17T04:25:31.303Z,1009.23
2017-03-17T04:26:11.771Z,1009.25
2017-03-17T04:26:52.325Z,1009.17
2017-03-17T04:27:32.807Z,1009.21
2017-03-17T04:28:13.305Z,1009.2
2017-03-17T04:28:53.785Z,1009.26
2017-03-17T04:29:34.279Z,1009.24
2017-03-17T04:30:14.817Z,1009.28
2017-03-17T04:30:55.262Z,1009.09
2017-03-17T04:31:35.757Z,1009.25
2017-03-17T04:32:16.235Z,1009.18
2017-03-17T04:32:56.737Z,1009.14
2017-03-17T04:33:37.256Z,1009.07
2017-03-17T04:34:17.716Z,1009.03
2017-03-17T04:34:58.250Z,1009.08
2017-03-17T04:35:38.751Z,1009.16
2017-03-17T04:36:19.218Z,1009.22
2017-03-17T04:36:59.739Z,1009.17
2017-03-17T04:37:40.215Z,1009.16
2017-03-17T04:38:20.713Z,1009.23
2017-03-17T04:39:01.240Z,1009.12
2017-03-17T04:39:41.698Z,1009.2
2017-03-17T04:40:22.178Z,1009.1
2017-03-17T04:41:02.638Z,1009.26
2017-03-17T04:41:43.114Z,1009.12
2017-03-17T04:42:23.623Z,1009.13
2017-03-17T04:43:04.113Z,1009.19
2017-03-17T04:43:44.599Z,1009.13
2017-03-17T04:44:25.080Z,1009.16
2017-03-17T04:45:05.576Z,1009.16
2017-03-17T04:45:46.116Z,1009.14
2017-03-17T04:46:26.585Z,1009.19
2017-03-17T04:47:07.129Z,1009.16
2017-03-17T04:47:47.558Z,1009.16
2017-03-17T04:48:28.054Z,1009.12
2017-03-17T04:49:08.566Z,1009.22
2017-03-17T04:49:49.075Z,1009.23
2017-03-17T04:50:29.575Z,1009.17
2017-03-17T04:51:10.041Z,1009.25
2017-03-17T04:51:50.534Z,1009.23
2017-03-17T04:52:31.052Z,1009.14
2017-03-17T04:53:11.536Z,1009.26
2017-03-17T04:53:52.022Z,1009.13
2017-03-17T04:54:32.526Z,1009.25
2017-03-17T04:55:13.056Z,1009.26
2017-03-17T04:55:53.517Z,1009.19
2017-03-17T04:56:33.988Z,1009.25
2017-03-17T04:57:14.515Z,1009.26
2017-03-17T04:57:54.980Z,1009.11
2017-03-17T04:58:35.431Z,1009.29
2017-03-17T04:59:15.910Z,1009.24
2017-03-17T04:59:56.402Z,1009.22
2017-03-17T05:00:36.931Z,1009.29
2017-03-17T05:01:17.421Z,1009.28
2017-03-17T05:01:57.953Z,1009.21
2017-03-17T05:02:38.431Z,1009.32
2017-03-17T05:03:18.956Z,1009.32
2017-03-17T05:03:59.501Z,1009.28
2017-03-17T05:04:39.959Z,1009.29
2017-03-17T05:05:20.467Z,1009.33
2017-03-17T05:06:00.928Z,1009.4
2017-03-17T05:06:41.423Z,1009.27
2017-03-17T05:07:22.043Z,1009.25
2017-03-17T05:08:02.584Z,1009.37
2017-03-17T05:08:43.072Z,1009.29
2017-03-17T05:09:23.608Z,1009.41
2017-03-17T05:10:04.191Z,1009.32
2017-03-17T05:10:44.879Z,1009.37
2017-03-17T05:11:25.416Z,1009.38
2017-03-17T05:12:05.903Z,1009.37
2017-03-17T05:12:46.455Z,1009.33
2017-03-17T05:13:27.006Z,1009.4
2017-03-17T05:14:07.480Z,1009.47
2017-03-17T05:14:47.969Z,1009.29
2017-03-17T05:15:28.487Z,1009.56
2017-03-17T05:16:09.075Z,1009.31
2017-03-17T05:16:49.601Z,1009.45
2017-03-17T05:17:30.164Z,1009.39
2017-03-17T05:18:10.653Z,1009.51
2017-03-17T05:18:51.202Z,1009.39
2017-03-17T05:19:31.691Z,1009.45
2017-03-17T05:20:12.218Z,1009.41
2017-03-17T05:20:52.726Z,1009.4
2017-03-17T05:21:33.234Z,1009.48
2017-03-17T05:22:20.550Z,1009.43
2017-03-17T05:23:01.075Z,1009.43
2017-03-17T05:23:41.574Z,1009.42
2017-03-17T05:24:22.062Z,1009.36
2017-03-17T05:25:02.596Z,1009.44
2017-03-17T05:25:43.092Z,1009.42
2017-03-17T05:26:23.673Z,1009.33
2017-03-17T05:27:04.134Z,1009.4
2017-03-17T05:27:44.615Z,1009.47
2017-03-17T05:28:25.157Z,1009.42
2017-03-17T05:29:05.625Z,1009.47
2017-03-17T05:29:46.204Z,1009.43
2017-03-17T05:30:26.705Z,1009.5
2017-03-17T05:31:07.169Z,1009.39
2017-03-17T05:31:47.709Z,1009.47
2017-03-17T05:32:28.226Z,1009.46
2017-03-17T05:33:08.711Z,1009.44
2017-03-17T05:33:49.213Z,1009.42
2017-03-17T05:34:29.694Z,1009.5
2017-03-17T05:35:10.161Z,1009.46
2017-03-17T05:35:50.694Z,1009.49
2017-03-17T05:36:31.313Z,1009.59
2017-03-17T05:37:11.831Z,1009.48
2017-03-17T05:37:52.356Z,1009.47
2017-03-17T05:38:32.826Z,1009.52
2017-03-17T05:39:13.336Z,1009.55
2017-03-17T05:39:53.879Z,1009.53
2017-03-17T05:40:34.386Z,1009.53
2017-03-17T05:41:14.923Z,1009.49
2017-03-17T05:41:55.391Z,1009.57
2017-03-17T05:42:35.840Z,1009.61
2017-03-17T05:43:16.381Z,1009.73
2017-03-17T05:43:56.879Z,1009.56
2017-03-17T05:44:37.326Z,1009.62
2017-03-17T05:45:17.834Z,1009.61
2017-03-17T05:45:58.318Z,1009.57
2017-03-17T05:46:38.776Z,1009.64
2017-03-17T05:47:19.257Z,1009.6
2017-03-17T05:47:59.828Z,1009.6
2017-03-17T05:48:40.262Z,1009.68
2017-03-17T05:49:20.795Z,1009.61
2017-03-17T05:50:01.243Z,1009.53
2017-03-17T05:50:41.725Z,1009.56
2017-03-17T05:51:22.230Z,1009.55
2017-03-17T05:52:02.762Z,1009.63
2017-03-17T05:52:43.244Z,1009.63
2017-03-17T05:53:23.718Z,1009.6
2017-03-17T05:54:04.207Z,1009.53
2017-03-17T05:54:44.719Z,1009.63
2017-03-17T05:55:25.202Z,1009.62
2017-03-17T05:56:05.672Z,1009.62
2017-03-17T05:56:46.234Z,1009.64
2017-03-17T05:57:26.690Z,1009.67
2017-03-17T05:58:07.182Z,1009.66
2017-03-17T05:58:47.669Z,1009.69
2017-03-17T05:59:28.203Z,1009.65
2017-03-17T06:00:08.701Z,1009.67
2017-03-17T06:00:49.187Z,1009.67
2017-03-17T06:01:29.717Z,1009.63
2017-03-17T06:02:10.198Z,1009.65
2017-03-17T06:02:50.718Z,1009.67
2017-03-17T06:03:31.193Z,1009.68
2017-03-17T06:04:11.721Z,1009.7
2017-03-17T06:04:52.227Z,1009.75
2017-03-17T06:05:32.694Z,1009.75
2017-03-17T06:06:13.228Z,1009.7
2017-03-17T06:06:53.724Z,1009.63
2017-03-17T06:07:34.288Z,1009.7
2017-03-17T06:08:14.802Z,1009.69
2017-03-17T06:08:55.325Z,1009.77
2017-03-17T06:09:35.905Z,1009.69
2017-03-17T06:10:16.445Z,1009.72
2017-03-17T06:10:56.966Z,1009.7
2017-03-17T06:11:37.410Z,1009.72
2017-03-17T06:12:17.933Z,1009.69
2017-03-17T06:12:58.432Z,1009.83
2017-03-17T06:13:39.002Z,1009.7
2017-03-17T06:14:19.449Z,1009.75
2017-03-17T06:14:59.946Z,1009.79
2017-03-17T06:15:40.447Z,1009.79
2017-03-17T06:16:20.945Z,1009.68
2017-03-17T06:17:01.417Z,1009.74
2017-03-17T06:17:41.910Z,1009.73
2017-03-17T06:18:22.408Z,1009.75
2017-03-17T06:19:02.925Z,1009.8
2017-03-17T06:19:43.401Z,1009.72
2017-03-17T06:20:23.956Z,1009.75
2017-03-17T06:21:04.416Z,1009.73
2017-03-17T06:21:44.922Z,1009.79
2017-03-17T06:22:25.433Z,1009.79
2017-03-17T06:23:05.943Z,1009.8
2017-03-17T06:23:46.453Z,1009.88
2017-03-17T06:24:26.937Z,1009.78
2017-03-17T06:25:07.441Z,1009.65
2017-03-17T06:25:47.908Z,1009.79
2017-03-17T06:26:28.433Z,1009.83
2017-03-17T06:27:08.974Z,1009.77
2017-03-17T06:27:49.507Z,1009.87
2017-03-17T06:28:30.025Z,1009.89
2017-03-17T06:29:10.612Z,1009.88
2017-03-17T06:29:51.144Z,1009.89
2017-03-17T06:30:31.678Z,1009.8
2017-03-17T06:31:12.161Z,1010.01
2017-03-17T06:31:52.643Z,1009.79
2017-03-17T06:32:33.141Z,1009.76
2017-03-17T06:33:13.652Z,1009.92
2017-03-17T06:33:54.172Z,1009.81
2017-03-17T06:34:34.735Z,1009.83
2017-03-17T06:35:15.183Z,1009.9
2017-03-17T06:35:55.680Z,1009.81
2017-03-17T06:36:36.175Z,1009.92
2017-03-17T06:37:16.719Z,1009.8
2017-03-17T06:37:57.147Z,1009.9
2017-03-17T06:38:37.643Z,1009.95
2017-03-17T06:39:18.163Z,1010.02
2017-03-17T06:39:58.619Z,1009.89
2017-03-17T06:40:39.168Z,1009.86
2017-03-17T06:41:19.675Z,1009.85
2017-03-17T06:42:00.201Z,1009.81
2017-03-17T06:42:40.722Z,1009.99
2017-03-17T06:43:21.232Z,1009.95
2017-03-17T06:44:01.679Z,1009.95
2017-03-17T06:44:42.179Z,1009.98
2017-03-17T06:45:22.744Z,1009.89
2017-03-17T06:46:03.197Z,1009.87
2017-03-17T06:46:43.724Z,1009.81
2017-03-17T06:47:24.232Z,1009.92
2017-03-17T06:48:07.466Z,1009.84
2017-03-17T06:48:47.950Z,1009.82
2017-03-17T06:49:28.480Z,1009.81
2017-03-17T06:50:09.027Z,1009.85
2017-03-17T06:50:49.512Z,1010.06
2017-03-17T06:51:29.994Z,1009.77
2017-03-17T06:52:10.504Z,1009.88
2017-03-17T06:52:51.033Z,1009.82
2017-03-17T06:53:31.511Z,1009.91
2017-03-17T06:54:12.007Z,1009.87
2017-03-17T06:54:52.629Z,1009.88
2017-03-17T06:55:33.115Z,1009.98
2017-03-17T06:56:13.703Z,1009.83
2017-03-17T06:56:54.224Z,1009.91
2017-03-17T06:57:34.764Z,1009.83
2017-03-17T06:58:15.232Z,1009.87
2017-03-17T06:58:55.700Z,1009.84
2017-03-17T06:59:36.176Z,1009.88
2017-03-17T07:00:16.681Z,1009.92
2017-03-17T07:00:57.171Z,1009.89
2017-03-17T07:01:37.663Z,1009.9
2017-03-17T07:02:18.187Z,1009.85
2017-03-17T07:02:58.699Z,1009.91
2017-03-17T07:03:40.001Z,1009.93
2017-03-17T07:04:20.462Z,1009.89
2017-03-17T07:05:00.953Z,1009.87
2017-03-17T07:05:41.477Z,1009.84
2017-03-17T07:06:21.933Z,1009.82
2017-03-17T07:07:02.418Z,1009.89
2017-03-17T07:07:42.965Z,1009.89
2017-03-17T07:08:23.472Z,1009.91
2017-03-17T07:09:03.959Z,1009.89
2017-03-17T07:09:44.522Z,1009.85
2017-03-17T07:10:25.028Z,1009.87
2017-03-17T07:11:05.573Z,1009.84
2017-03-17T07:11:46.050Z,1009.9
2017-03-17T07:12:26.603Z,1009.86
2017-03-17T07:13:07.159Z,1009.93
2017-03-17T07:13:47.677Z,1009.89
2017-03-17T07:14:28.138Z,1009.93
2017-03-17T07:15:08.659Z,1009.98
2017-03-17T07:15:49.177Z,1009.92
2017-03-17T07:16:29.745Z,1009.99
2017-03-17T07:17:10.253Z,1009.96
2017-03-17T07:17:50.740Z,1009.94
2017-03-17T07:18:31.517Z,1009.96
2017-03-17T07:19:11.983Z,1009.89
2017-03-17T07:19:52.485Z,1010.01
2017-03-17T07:20:33.062Z,1009.96
2017-03-17T07:21:13.506Z,1009.97
2017-03-17T07:21:54.025Z,1010.05
2017-03-17T07:22:34.542Z,1010.09
2017-03-17T07:23:15.059Z,1010.1
2017-03-17T07:23:55.565Z,1010
2017-03-17T07:24:36.098Z,1010.06
2017-03-17T07:25:16.548Z,1009.99
2017-03-17T07:25:57.089Z,1009.99
2017-03-17T07:26:37.630Z,1010.11
2017-03-17T07:27:18.133Z,1009.98
2017-03-17T07:27:58.628Z,1010.1
2017-03-17T07:28:39.118Z,1010.11
2017-03-17T07:29:19.618Z,1010.07
2017-03-17T07:30:00.190Z,1010.1
2017-03-17T07:30:41.103Z,1010.15
2017-03-17T07:31:21.639Z,1009.99
2017-03-17T07:32:02.102Z,1010.03
2017-03-17T07:32:42.687Z,1010.1
2017-03-17T07:33:23.188Z,1010.04
2017-03-17T07:34:03.716Z,1010.16
2017-03-17T07:34:44.200Z,1010
2017-03-17T07:35:24.699Z,1010.14
2017-03-17T07:36:05.229Z,1010.12
2017-03-17T07:36:45.718Z,1010.04
2017-03-17T07:37:26.204Z,1010.14
2017-03-17T07:38:06.742Z,1010.06
2017-03-17T07:38:47.244Z,1010.07
2017-03-17T07:39:27.707Z,1010.07
2017-03-17T07:40:08.221Z,1010.12
2017-03-17T07:40:48.701Z,1010.22
2017-03-17T07:41:31.226Z,1010.12
2017-03-17T07:42:11.752Z,1010.1
2017-03-17T07:42:52.270Z,1010.01
2017-03-17T07:43:32.772Z,1010.21
2017-03-17T07:44:13.387Z,1010.1
2017-03-17T07:44:53.903Z,1010.1
2017-03-17T07:45:35.540Z,1010.08
2017-03-17T07:46:16.175Z,1010.1
2017-03-17T07:46:56.625Z,1010.16
2017-03-17T07:47:37.121Z,1010.2
2017-03-17T07:48:17.634Z,1010.22
2017-03-17T07:48:58.142Z,1010.1
2017-03-17T07:49:38.608Z,1010.13
2017-03-17T07:50:19.089Z,1010.18
2017-03-17T07:50:59.650Z,1010.18
2017-03-17T07:51:40.174Z,1010.18
2017-03-17T07:52:20.712Z,1010.2
2017-03-17T07:53:01.203Z,1010.16
2017-03-17T07:53:41.780Z,1010.17
2017-03-17T07:54:22.234Z,1010.18
2017-03-17T07:55:02.728Z,1010.29
2017-03-17T07:55:43.228Z,1010.18
2017-03-17T07:56:23.896Z,1010.11
2017-03-17T07:57:04.444Z,1010.16
2017-03-17T07:57:44.891Z,1010.16
2017-03-17T07:58:25.491Z,1010.16
2017-03-17T07:59:06.022Z,1010.18
2017-03-17T07:59:46.639Z,1010.14
2017-03-17T08:00:27.174Z,1010.15
2017-03-17T08:01:07.809Z,1010.37
2017-03-17T08:01:48.289Z,1010.17
2017-03-17T08:02:28.760Z,1010.18
2017-03-17T08:03:10.042Z,1010.18
2017-03-17T08:03:50.592Z,1010.16
2017-03-17T08:04:31.128Z,1010.23
2017-03-17T08:05:11.596Z,1010.18
2017-03-17T08:05:52.102Z,1010.12
2017-03-17T08:06:32.911Z,1010.12
2017-03-17T08:07:13.486Z,1009.95
2017-03-17T08:07:54.585Z,1009.97
2017-03-17T08:08:35.062Z,1009.97
2017-03-17T08:09:15.664Z,1010.06
2017-03-17T08:09:56.173Z,1009.96
2017-03-17T08:10:36.625Z,1009.97
2017-03-17T08:11:17.909Z,1010.09
2017-03-17T08:12:02.132Z,1009.9